sensor_id;sensor_type;location;lat;lon;timestamp;P1;durP1;ratioP1;P2;durP2;ratioP2
36797;SDS011;22748;8.426;99.512;2023-09-18T00:02:25;11.20;;;8.38;;
36797;SDS011;22748;8.426;99.512;2023-09-18T00:05:05;17.85;;;10.48;;
36797;SDS011;22748;8.426;99.512;2023-09-18T00:07:35;13.25;;;8.95;;
36797;SDS011;22748;8.426;99.512;2023-09-18T00:10:13;9.25;;;7.80;;
36797;SDS011;22748;8.426;99.512;2023-09-18T00:12:50;9.57;;;7.03;;
36797;SDS011;22748;8.426;99.512;2023-09-18T00:17:51;8.98;;;6.95;;
36797;SDS011;22748;8.426;99.512;2023-09-18T00:20:25;12.07;;;9.00;;
36797;SDS011;22748;8.426;99.512;2023-09-18T00:22:55;18.30;;;10.90;;
36797;SDS011;22748;8.426;99.512;2023-09-18T00:25:26;11.70;;;9.70;;
36797;SDS011;22748;8.426;99.512;2023-09-18T00:27:57;20.10;;;11.88;;
36797;SDS011;22748;8.426;99.512;2023-09-18T00:30:27;19.73;;;10.52;;
36797;SDS011;22748;8.426;99.512;2023-09-18T00:32:58;14.25;;;9.65;;
36797;SDS011;22748;8.426;99.512;2023-09-18T00:35:30;16.45;;;9.45;;
36797;SDS011;22748;8.426;99.512;2023-09-18T00:38:08;11.20;;;8.25;;
36797;SDS011;22748;8.426;99.512;2023-09-18T00:40:39;12.25;;;8.88;;
36797;SDS011;22748;8.426;99.512;2023-09-18T00:43:09;11.77;;;8.02;;
36797;SDS011;22748;8.426;99.512;2023-09-18T00:45:40;16.98;;;8.68;;
36797;SDS011;22748;8.426;99.512;2023-09-18T00:48:14;12.32;;;8.30;;
36797;SDS011;22748;8.426;99.512;2023-09-18T00:50:47;16.63;;;12.82;;
36797;SDS011;22748;8.426;99.512;2023-09-18T00:53:20;19.48;;;16.73;;
36797;SDS011;22748;8.426;99.512;2023-09-18T00:55:53;24.27;;;19.10;;
36797;SDS011;22748;8.426;99.512;2023-09-18T00:58:28;43.28;;;38.25;;
36797;SDS011;22748;8.426;99.512;2023-09-18T01:03:30;35.80;;;31.30;;
36797;SDS011;22748;8.426;99.512;2023-09-18T01:06:04;37.45;;;30.35;;
36797;SDS011;22748;8.426;99.512;2023-09-18T01:08:35;37.35;;;33.65;;
36797;SDS011;22748;8.426;99.512;2023-09-18T01:11:09;41.58;;;37.10;;
36797;SDS011;22748;8.426;99.512;2023-09-18T01:13:49;41.00;;;36.60;;
36797;SDS011;22748;8.426;99.512;2023-09-18T01:16:24;36.30;;;32.55;;
36797;SDS011;22748;8.426;99.512;2023-09-18T01:19:00;38.70;;;34.65;;
36797;SDS011;22748;8.426;99.512;2023-09-18T01:21:33;37.05;;;32.63;;
36797;SDS011;22748;8.426;99.512;2023-09-18T01:24:05;35.08;;;31.27;;
36797;SDS011;22748;8.426;99.512;2023-09-18T01:26:36;38.33;;;31.52;;
36797;SDS011;22748;8.426;99.512;2023-09-18T01:29:05;28.70;;;25.60;;
36797;SDS011;22748;8.426;99.512;2023-09-18T01:31:36;25.95;;;18.98;;
36797;SDS011;22748;8.426;99.512;2023-09-18T01:34:06;19.97;;;17.80;;
36797;SDS011;22748;8.426;99.512;2023-09-18T01:36:41;23.15;;;20.02;;
36797;SDS011;22748;8.426;99.512;2023-09-18T01:39:14;24.75;;;22.23;;
36797;SDS011;22748;8.426;99.512;2023-09-18T01:41:46;22.65;;;20.35;;
36797;SDS011;22748;8.426;99.512;2023-09-18T01:46:48;23.60;;;15.73;;
36797;SDS011;22748;8.426;99.512;2023-09-18T01:49:32;12.70;;;11.35;;
36797;SDS011;22748;8.426;99.512;2023-09-18T01:52:03;17.60;;;11.38;;
36797;SDS011;22748;8.426;99.512;2023-09-18T01:54:36;13.93;;;10.50;;
36797;SDS011;22748;8.426;99.512;2023-09-18T01:57:07;12.27;;;10.73;;
36797;SDS011;22748;8.426;99.512;2023-09-18T01:59:39;12.40;;;9.02;;
36797;SDS011;22748;8.426;99.512;2023-09-18T02:02:11;14.18;;;8.30;;
36797;SDS011;22748;8.426;99.512;2023-09-18T02:04:44;8.80;;;7.40;;
36797;SDS011;22748;8.426;99.512;2023-09-18T02:07:14;8.00;;;7.05;;
36797;SDS011;22748;8.426;99.512;2023-09-18T02:09:50;14.93;;;7.35;;
36797;SDS011;22748;8.426;99.512;2023-09-18T02:12:22;12.95;;;7.65;;
36797;SDS011;22748;8.426;99.512;2023-09-18T02:14:52;14.02;;;8.35;;
36797;SDS011;22748;8.426;99.512;2023-09-18T02:17:24;14.80;;;6.68;;
36797;SDS011;22748;8.426;99.512;2023-09-18T02:19:55;15.15;;;13.65;;
36797;SDS011;22748;8.426;99.512;2023-09-18T02:22:32;11.43;;;6.93;;
36797;SDS011;22748;8.426;99.512;2023-09-18T02:25:08;9.48;;;6.93;;
36797;SDS011;22748;8.426;99.512;2023-09-18T02:27:38;6.60;;;5.43;;
36797;SDS011;22748;8.426;99.512;2023-09-18T02:30:08;8.65;;;5.85;;
36797;SDS011;22748;8.426;99.512;2023-09-18T02:32:41;8.77;;;4.97;;
36797;SDS011;22748;8.426;99.512;2023-09-18T02:37:42;9.70;;;5.43;;
36797;SDS011;22748;8.426;99.512;2023-09-18T02:40:16;5.25;;;4.75;;
36797;SDS011;22748;8.426;99.512;2023-09-18T02:42:47;5.85;;;5.05;;
36797;SDS011;22748;8.426;99.512;2023-09-18T02:45:18;10.20;;;5.45;;
36797;SDS011;22748;8.426;99.512;2023-09-18T02:47:50;8.80;;;5.38;;
36797;SDS011;22748;8.426;99.512;2023-09-18T02:50:22;6.95;;;5.30;;
36797;SDS011;22748;8.426;99.512;2023-09-18T02:52:53;9.20;;;6.25;;
36797;SDS011;22748;8.426;99.512;2023-09-18T02:57:56;9.93;;;7.38;;
36797;SDS011;22748;8.426;99.512;2023-09-18T03:00:33;8.63;;;6.82;;
36797;SDS011;22748;8.426;99.512;2023-09-18T03:03:03;7.28;;;5.25;;
36797;SDS011;22748;8.426;99.512;2023-09-18T03:05:35;7.22;;;4.55;;
36797;SDS011;22748;8.426;99.512;2023-09-18T03:08:05;7.03;;;4.80;;
36797;SDS011;22748;8.426;99.512;2023-09-18T03:10:39;4.63;;;4.20;;
36797;SDS011;22748;8.426;99.512;2023-09-18T03:13:13;5.93;;;4.22;;
36797;SDS011;22748;8.426;99.512;2023-09-18T03:15:47;6.13;;;4.35;;
36797;SDS011;22748;8.426;99.512;2023-09-18T03:18:18;5.82;;;4.78;;
36797;SDS011;22748;8.426;99.512;2023-09-18T03:20:48;7.50;;;4.85;;
36797;SDS011;22748;8.426;99.512;2023-09-18T03:23:18;6.68;;;4.97;;
36797;SDS011;22748;8.426;99.512;2023-09-18T03:25:54;9.50;;;5.50;;
36797;SDS011;22748;8.426;99.512;2023-09-18T03:28:27;12.40;;;6.07;;
36797;SDS011;22748;8.426;99.512;2023-09-18T03:30:58;9.20;;;5.53;;
36797;SDS011;22748;8.426;99.512;2023-09-18T03:33:31;6.00;;;5.38;;
36797;SDS011;22748;8.426;99.512;2023-09-18T03:36:05;9.77;;;6.97;;
36797;SDS011;22748;8.426;99.512;2023-09-18T03:38:38;10.32;;;6.93;;
36797;SDS011;22748;8.426;99.512;2023-09-18T03:43:40;20.25;;;9.63;;
36797;SDS011;22748;8.426;99.512;2023-09-18T03:46:12;54.67;;;20.13;;
36797;SDS011;22748;8.426;99.512;2023-09-18T03:51:12;28.63;;;14.17;;
36797;SDS011;22748;8.426;99.512;2023-09-18T03:53:42;12.70;;;8.70;;
36797;SDS011;22748;8.426;99.512;2023-09-18T03:56:24;17.83;;;7.80;;
36797;SDS011;22748;8.426;99.512;2023-09-18T03:59:02;11.27;;;9.05;;
36797;SDS011;22748;8.426;99.512;2023-09-18T04:04:07;22.00;;;14.75;;
36797;SDS011;22748;8.426;99.512;2023-09-18T04:06:40;16.25;;;10.60;;
36797;SDS011;22748;8.426;99.512;2023-09-18T04:09:11;13.95;;;10.50;;
36797;SDS011;22748;8.426;99.512;2023-09-18T04:11:44;10.05;;;8.05;;
36797;SDS011;22748;8.426;99.512;2023-09-18T04:14:16;11.50;;;8.68;;
36797;SDS011;22748;8.426;99.512;2023-09-18T04:16:46;11.55;;;9.00;;
36797;SDS011;22748;8.426;99.512;2023-09-18T04:19:16;9.10;;;8.20;;
36797;SDS011;22748;8.426;99.512;2023-09-18T04:21:47;9.73;;;8.73;;
36797;SDS011;22748;8.426;99.512;2023-09-18T04:24:18;12.38;;;8.38;;
36797;SDS011;22748;8.426;99.512;2023-09-18T04:29:39;13.02;;;8.88;;
36797;SDS011;22748;8.426;99.512;2023-09-18T04:32:09;9.23;;;8.33;;
36797;SDS011;22748;8.426;99.512;2023-09-18T04:34:50;9.90;;;9.00;;
36797;SDS011;22748;8.426;99.512;2023-09-18T04:37:28;13.85;;;10.18;;
36797;SDS011;22748;8.426;99.512;2023-09-18T04:39:59;11.15;;;9.93;;
36797;SDS011;22748;8.426;99.512;2023-09-18T04:42:42;9.55;;;8.65;;
36797;SDS011;22748;8.426;99.512;2023-09-18T04:45:13;9.50;;;8.70;;
36797;SDS011;22748;8.426;99.512;2023-09-18T04:48:03;11.95;;;10.07;;
36797;SDS011;22748;8.426;99.512;2023-09-18T04:50:35;11.50;;;10.13;;
36797;SDS011;22748;8.426;99.512;2023-09-18T04:55:37;10.75;;;9.65;;
36797;SDS011;22748;8.426;99.512;2023-09-18T04:58:20;11.05;;;9.90;;
36797;SDS011;22748;8.426;99.512;2023-09-18T05:00:53;16.70;;;9.82;;
36797;SDS011;22748;8.426;99.512;2023-09-18T05:03:24;16.05;;;9.07;;
36797;SDS011;22748;8.426;99.512;2023-09-18T05:06:02;13.38;;;9.00;;
36797;SDS011;22748;8.426;99.512;2023-09-18T05:08:36;11.75;;;8.23;;
36797;SDS011;22748;8.426;99.512;2023-09-18T05:11:13;9.80;;;8.80;;
36797;SDS011;22748;8.426;99.512;2023-09-18T05:16:26;10.32;;;9.23;;
36797;SDS011;22748;8.426;99.512;2023-09-18T05:19:01;9.23;;;8.32;;
36797;SDS011;22748;8.426;99.512;2023-09-18T05:21:31;10.25;;;9.27;;
36797;SDS011;22748;8.426;99.512;2023-09-18T05:24:05;9.20;;;8.30;;
36797;SDS011;22748;8.426;99.512;2023-09-18T05:26:36;9.48;;;8.68;;
36797;SDS011;22748;8.426;99.512;2023-09-18T05:29:11;13.15;;;11.27;;
36797;SDS011;22748;8.426;99.512;2023-09-18T05:31:42;10.90;;;9.40;;
36797;SDS011;22748;8.426;99.512;2023-09-18T05:34:13;10.10;;;8.80;;
36797;SDS011;22748;8.426;99.512;2023-09-18T05:36:43;13.50;;;9.80;;
36797;SDS011;22748;8.426;99.512;2023-09-18T05:39:13;10.40;;;9.15;;
36797;SDS011;22748;8.426;99.512;2023-09-18T05:41:43;10.02;;;9.02;;
36797;SDS011;22748;8.426;99.512;2023-09-18T05:44:15;16.47;;;9.93;;
36797;SDS011;22748;8.426;99.512;2023-09-18T05:46:46;10.63;;;9.32;;
36797;SDS011;22748;8.426;99.512;2023-09-18T05:49:17;12.00;;;9.30;;
36797;SDS011;22748;8.426;99.512;2023-09-18T05:51:47;11.48;;;10.05;;
36797;SDS011;22748;8.426;99.512;2023-09-18T05:54:23;9.98;;;8.98;;
36797;SDS011;22748;8.426;99.512;2023-09-18T05:56:53;10.55;;;9.43;;
36797;SDS011;22748;8.426;99.512;2023-09-18T05:59:32;12.07;;;9.63;;
36797;SDS011;22748;8.426;99.512;2023-09-18T06:02:07;20.83;;;9.40;;
36797;SDS011;22748;8.426;99.512;2023-09-18T06:04:38;12.95;;;9.32;;
36797;SDS011;22748;8.426;99.512;2023-09-18T06:07:08;11.27;;;9.32;;
36797;SDS011;22748;8.426;99.512;2023-09-18T06:12:11;12.57;;;8.98;;
36797;SDS011;22748;8.426;99.512;2023-09-18T06:15:07;16.05;;;10.10;;
36797;SDS011;22748;8.426;99.512;2023-09-18T06:17:41;14.98;;;9.20;;
36797;SDS011;22748;8.426;99.512;2023-09-18T06:20:14;15.50;;;11.13;;
36797;SDS011;22748;8.426;99.512;2023-09-18T06:22:45;10.57;;;9.57;;
36797;SDS011;22748;8.426;99.512;2023-09-18T06:25:16;11.77;;;10.00;;
36797;SDS011;22748;8.426;99.512;2023-09-18T06:30:18;11.93;;;9.07;;
36797;SDS011;22748;8.426;99.512;2023-09-18T06:32:48;13.00;;;9.63;;
36797;SDS011;22748;8.426;99.512;2023-09-18T06:35:19;8.18;;;7.38;;
36797;SDS011;22748;8.426;99.512;2023-09-18T06:37:49;10.60;;;8.40;;
36797;SDS011;22748;8.426;99.512;2023-09-18T06:40:27;9.20;;;8.30;;
36797;SDS011;22748;8.426;99.512;2023-09-18T06:42:59;8.38;;;7.68;;
36797;SDS011;22748;8.426;99.512;2023-09-18T06:45:33;13.25;;;7.78;;
36797;SDS011;22748;8.426;99.512;2023-09-18T06:48:04;11.32;;;8.20;;
36797;SDS011;22748;8.426;99.512;2023-09-18T06:50:35;12.55;;;9.05;;
36797;SDS011;22748;8.426;99.512;2023-09-18T06:53:06;13.32;;;8.73;;
36797;SDS011;22748;8.426;99.512;2023-09-18T06:55:37;9.90;;;8.90;;
36797;SDS011;22748;8.426;99.512;2023-09-18T07:00:40;9.25;;;8.35;;
36797;SDS011;22748;8.426;99.512;2023-09-18T07:03:11;9.02;;;7.93;;
36797;SDS011;22748;8.426;99.512;2023-09-18T07:05:42;12.65;;;9.30;;
36797;SDS011;22748;8.426;99.512;2023-09-18T07:08:14;14.35;;;10.25;;
36797;SDS011;22748;8.426;99.512;2023-09-18T07:10:50;9.98;;;8.25;;
36797;SDS011;22748;8.426;99.512;2023-09-18T07:13:27;10.32;;;9.20;;
36797;SDS011;22748;8.426;99.512;2023-09-18T07:18:30;8.80;;;7.90;;
36797;SDS011;22748;8.426;99.512;2023-09-18T07:23:39;10.35;;;9.35;;
36797;SDS011;22748;8.426;99.512;2023-09-18T07:26:12;10.10;;;9.10;;
36797;SDS011;22748;8.426;99.512;2023-09-18T07:28:42;10.60;;;9.25;;
36797;SDS011;22748;8.426;99.512;2023-09-18T07:31:14;9.65;;;8.65;;
36797;SDS011;22748;8.426;99.512;2023-09-18T07:33:46;10.10;;;8.93;;
36797;SDS011;22748;8.426;99.512;2023-09-18T07:36:19;10.55;;;9.48;;
36797;SDS011;22748;8.426;99.512;2023-09-18T07:38:51;10.30;;;9.20;;
36797;SDS011;22748;8.426;99.512;2023-09-18T07:41:23;9.48;;;8.55;;
36797;SDS011;22748;8.426;99.512;2023-09-18T07:46:35;12.15;;;10.05;;
36797;SDS011;22748;8.426;99.512;2023-09-18T07:49:06;10.60;;;9.60;;
36797;SDS011;22748;8.426;99.512;2023-09-18T07:54:09;10.48;;;9.50;;
36797;SDS011;22748;8.426;99.512;2023-09-18T07:56:43;9.98;;;9.07;;
36797;SDS011;22748;8.426;99.512;2023-09-18T07:59:14;9.70;;;8.80;;
36797;SDS011;22748;8.426;99.512;2023-09-18T08:01:47;10.40;;;9.10;;
36797;SDS011;22748;8.426;99.512;2023-09-18T08:04:18;9.63;;;8.68;;
36797;SDS011;22748;8.426;99.512;2023-09-18T08:06:49;8.70;;;7.80;;
36797;SDS011;22748;8.426;99.512;2023-09-18T08:09:20;7.57;;;6.88;;
36797;SDS011;22748;8.426;99.512;2023-09-18T08:11:57;9.25;;;7.63;;
36797;SDS011;22748;8.426;99.512;2023-09-18T08:14:28;8.40;;;7.15;;
36797;SDS011;22748;8.426;99.512;2023-09-18T08:17:07;6.78;;;5.38;;
36797;SDS011;22748;8.426;99.512;2023-09-18T08:19:39;5.20;;;4.80;;
36797;SDS011;22748;8.426;99.512;2023-09-18T08:22:14;4.68;;;4.28;;
36797;SDS011;22748;8.426;99.512;2023-09-18T08:24:45;8.48;;;5.18;;
36797;SDS011;22748;8.426;99.512;2023-09-18T08:27:19;8.32;;;5.90;;
36797;SDS011;22748;8.426;99.512;2023-09-18T08:29:49;8.38;;;5.85;;
36797;SDS011;22748;8.426;99.512;2023-09-18T08:32:22;7.10;;;6.40;;
36797;SDS011;22748;8.426;99.512;2023-09-18T08:34:54;7.90;;;7.20;;
36797;SDS011;22748;8.426;99.512;2023-09-18T08:37:25;8.18;;;7.30;;
36797;SDS011;22748;8.426;99.512;2023-09-18T08:39:56;8.32;;;7.53;;
36797;SDS011;22748;8.426;99.512;2023-09-18T08:42:28;7.97;;;7.28;;
36797;SDS011;22748;8.426;99.512;2023-09-18T08:45:06;9.90;;;8.90;;
36797;SDS011;22748;8.426;99.512;2023-09-18T08:47:40;10.20;;;9.30;;
36797;SDS011;22748;8.426;99.512;2023-09-18T08:50:12;10.93;;;9.93;;
36797;SDS011;22748;8.426;99.512;2023-09-18T08:52:45;11.43;;;9.57;;
36797;SDS011;22748;8.426;99.512;2023-09-18T08:55:18;11.10;;;10.00;;
36797;SDS011;22748;8.426;99.512;2023-09-18T08:57:49;10.57;;;9.50;;
36797;SDS011;22748;8.426;99.512;2023-09-18T09:00:20;11.07;;;9.98;;
36797;SDS011;22748;8.426;99.512;2023-09-18T09:02:54;11.63;;;10.57;;
36797;SDS011;22748;8.426;99.512;2023-09-18T09:05:25;12.02;;;10.80;;
36797;SDS011;22748;8.426;99.512;2023-09-18T09:07:57;12.77;;;11.27;;
36797;SDS011;22748;8.426;99.512;2023-09-18T09:10:27;12.20;;;11.10;;
36797;SDS011;22748;8.426;99.512;2023-09-18T09:12:58;11.85;;;10.85;;
36797;SDS011;22748;8.426;99.512;2023-09-18T09:15:32;12.00;;;10.90;;
36797;SDS011;22748;8.426;99.512;2023-09-18T09:18:14;11.55;;;10.40;;
36797;SDS011;22748;8.426;99.512;2023-09-18T09:20:52;12.02;;;10.73;;
36797;SDS011;22748;8.426;99.512;2023-09-18T09:23:26;12.43;;;11.23;;
36797;SDS011;22748;8.426;99.512;2023-09-18T09:26:11;12.70;;;11.43;;
36797;SDS011;22748;8.426;99.512;2023-09-18T09:28:43;13.52;;;12.00;;
36797;SDS011;22748;8.426;99.512;2023-09-18T09:31:25;15.60;;;13.13;;
36797;SDS011;22748;8.426;99.512;2023-09-18T09:36:32;14.23;;;12.80;;
36797;SDS011;22748;8.426;99.512;2023-09-18T09:39:03;15.00;;;13.35;;
36797;SDS011;22748;8.426;99.512;2023-09-18T09:44:02;15.02;;;13.23;;
36797;SDS011;22748;8.426;99.512;2023-09-18T09:46:35;13.32;;;11.82;;
36797;SDS011;22748;8.426;99.512;2023-09-18T09:49:08;13.23;;;11.85;;
36797;SDS011;22748;8.426;99.512;2023-09-18T09:51:44;12.43;;;11.13;;
36797;SDS011;22748;8.426;99.512;2023-09-18T09:54:15;11.80;;;10.60;;
36797;SDS011;22748;8.426;99.512;2023-09-18T09:57:04;13.20;;;10.98;;
36797;SDS011;22748;8.426;99.512;2023-09-18T09:59:34;11.95;;;9.30;;
36797;SDS011;22748;8.426;99.512;2023-09-18T10:02:07;11.95;;;10.32;;
36797;SDS011;22748;8.426;99.512;2023-09-18T10:04:48;12.65;;;10.82;;
36797;SDS011;22748;8.426;99.512;2023-09-18T10:07:20;12.40;;;9.77;;
36797;SDS011;22748;8.426;99.512;2023-09-18T10:12:21;11.85;;;9.80;;
36797;SDS011;22748;8.426;99.512;2023-09-18T10:14:53;11.65;;;9.60;;
36797;SDS011;22748;8.426;99.512;2023-09-18T10:17:27;10.88;;;9.77;;
36797;SDS011;22748;8.426;99.512;2023-09-18T10:20:04;10.77;;;9.70;;
36797;SDS011;22748;8.426;99.512;2023-09-18T10:22:44;10.80;;;9.80;;
36797;SDS011;22748;8.426;99.512;2023-09-18T10:25:18;11.77;;;9.45;;
36797;SDS011;22748;8.426;99.512;2023-09-18T10:27:51;10.55;;;9.45;;
36797;SDS011;22748;8.426;99.512;2023-09-18T10:30:26;12.07;;;9.63;;
36797;SDS011;22748;8.426;99.512;2023-09-18T10:32:58;10.48;;;9.57;;
36797;SDS011;22748;8.426;99.512;2023-09-18T10:35:35;10.10;;;9.10;;
36797;SDS011;22748;8.426;99.512;2023-09-18T10:38:07;10.55;;;9.65;;
36797;SDS011;22748;8.426;99.512;2023-09-18T10:40:38;12.68;;;10.73;;
36797;SDS011;22748;8.426;99.512;2023-09-18T10:43:09;10.77;;;9.68;;
36797;SDS011;22748;8.426;99.512;2023-09-18T10:45:45;11.73;;;10.63;;
36797;SDS011;22748;8.426;99.512;2023-09-18T10:48:17;13.60;;;10.65;;
36797;SDS011;22748;8.426;99.512;2023-09-18T10:50:56;12.55;;;10.57;;
36797;SDS011;22748;8.426;99.512;2023-09-18T10:53:33;12.15;;;11.05;;
36797;SDS011;22748;8.426;99.512;2023-09-18T10:56:05;12.50;;;11.20;;
36797;SDS011;22748;8.426;99.512;2023-09-18T10:58:37;11.52;;;10.10;;
36797;SDS011;22748;8.426;99.512;2023-09-18T11:01:07;9.95;;;8.95;;
36797;SDS011;22748;8.426;99.512;2023-09-18T11:03:42;10.48;;;9.52;;
36797;SDS011;22748;8.426;99.512;2023-09-18T11:06:15;11.32;;;10.32;;
36797;SDS011;22748;8.426;99.512;2023-09-18T11:08:49;12.35;;;11.02;;
36797;SDS011;22748;8.426;99.512;2023-09-18T11:11:19;12.15;;;10.90;;
36797;SDS011;22748;8.426;99.512;2023-09-18T11:13:53;13.10;;;11.90;;
36797;SDS011;22748;8.426;99.512;2023-09-18T11:16:34;13.57;;;12.20;;
36797;SDS011;22748;8.426;99.512;2023-09-18T11:19:09;13.98;;;12.48;;
36797;SDS011;22748;8.426;99.512;2023-09-18T11:21:48;12.00;;;10.80;;
36797;SDS011;22748;8.426;99.512;2023-09-18T11:27:07;11.82;;;10.63;;
36797;SDS011;22748;8.426;99.512;2023-09-18T11:29:52;12.32;;;10.80;;
36797;SDS011;22748;8.426;99.512;2023-09-18T11:32:37;11.68;;;10.57;;
36797;SDS011;22748;8.426;99.512;2023-09-18T11:35:09;11.23;;;10.20;;
36797;SDS011;22748;8.426;99.512;2023-09-18T11:37:43;12.10;;;10.98;;
36797;SDS011;22748;8.426;99.512;2023-09-18T11:40:29;12.18;;;11.02;;
36797;SDS011;22748;8.426;99.512;2023-09-18T11:45:56;16.73;;;12.65;;
36797;SDS011;22748;8.426;99.512;2023-09-18T11:48:29;16.70;;;14.95;;
36797;SDS011;22748;8.426;99.512;2023-09-18T11:51:01;35.58;;;19.15;;
36797;SDS011;22748;8.426;99.512;2023-09-18T11:53:33;24.90;;;18.42;;
36797;SDS011;22748;8.426;99.512;2023-09-18T11:56:10;21.20;;;17.27;;
36797;SDS011;22748;8.426;99.512;2023-09-18T11:58:48;20.70;;;17.35;;
36797;SDS011;22748;8.426;99.512;2023-09-18T12:01:22;19.50;;;17.42;;
36797;SDS011;22748;8.426;99.512;2023-09-18T12:03:54;22.30;;;18.58;;
36797;SDS011;22748;8.426;99.512;2023-09-18T12:06:28;17.25;;;15.60;;
36797;SDS011;22748;8.426;99.512;2023-09-18T12:09:03;16.77;;;15.00;;
36797;SDS011;22748;8.426;99.512;2023-09-18T12:11:35;17.88;;;15.88;;
36797;SDS011;22748;8.426;99.512;2023-09-18T12:14:06;17.92;;;15.48;;
36797;SDS011;22748;8.426;99.512;2023-09-18T12:16:39;15.73;;;13.88;;
36797;SDS011;22748;8.426;99.512;2023-09-18T12:19:16;19.30;;;17.33;;
36797;SDS011;22748;8.426;99.512;2023-09-18T12:21:47;17.20;;;15.25;;
36797;SDS011;22748;8.426;99.512;2023-09-18T12:24:26;25.63;;;18.50;;
36797;SDS011;22748;8.426;99.512;2023-09-18T12:26:56;24.25;;;20.27;;
36797;SDS011;22748;8.426;99.512;2023-09-18T12:29:27;35.83;;;25.67;;
36797;SDS011;22748;8.426;99.512;2023-09-18T12:32:01;33.67;;;26.67;;
36797;SDS011;22748;8.426;99.512;2023-09-18T12:34:33;31.83;;;25.05;;
36797;SDS011;22748;8.426;99.512;2023-09-18T12:39:35;30.23;;;25.77;;
36797;SDS011;22748;8.426;99.512;2023-09-18T12:42:07;31.75;;;26.75;;
36797;SDS011;22748;8.426;99.512;2023-09-18T12:44:38;31.80;;;25.75;;
36797;SDS011;22748;8.426;99.512;2023-09-18T12:47:10;27.60;;;24.58;;
36797;SDS011;22748;8.426;99.512;2023-09-18T12:49:40;39.95;;;33.72;;
36797;SDS011;22748;8.426;99.512;2023-09-18T12:52:10;41.35;;;36.55;;
36797;SDS011;22748;8.426;99.512;2023-09-18T12:54:43;32.35;;;28.98;;
36797;SDS011;22748;8.426;99.512;2023-09-18T12:57:20;32.90;;;27.42;;
36797;SDS011;22748;8.426;99.512;2023-09-18T12:59:52;29.92;;;26.75;;
36797;SDS011;22748;8.426;99.512;2023-09-18T13:02:22;40.45;;;31.55;;
36797;SDS011;22748;8.426;99.512;2023-09-18T13:04:54;37.38;;;29.17;;
36797;SDS011;22748;8.426;99.512;2023-09-18T13:10:12;31.80;;;24.92;;
36797;SDS011;22748;8.426;99.512;2023-09-18T13:12:45;30.50;;;25.25;;
36797;SDS011;22748;8.426;99.512;2023-09-18T13:15:24;30.75;;;24.45;;
36797;SDS011;22748;8.426;99.512;2023-09-18T13:17:55;28.65;;;24.33;;
36797;SDS011;22748;8.426;99.512;2023-09-18T13:20:28;28.05;;;22.20;;
36797;SDS011;22748;8.426;99.512;2023-09-18T13:23:00;29.45;;;22.05;;
36797;SDS011;22748;8.426;99.512;2023-09-18T13:25:38;27.30;;;22.52;;
36797;SDS011;22748;8.426;99.512;2023-09-18T13:28:12;27.15;;;22.38;;
36797;SDS011;22748;8.426;99.512;2023-09-18T13:30:46;24.80;;;21.13;;
36797;SDS011;22748;8.426;99.512;2023-09-18T13:33:22;28.25;;;20.52;;
36797;SDS011;22748;8.426;99.512;2023-09-18T13:35:53;25.02;;;20.48;;
36797;SDS011;22748;8.426;99.512;2023-09-18T13:38:23;21.45;;;18.90;;
36797;SDS011;22748;8.426;99.512;2023-09-18T13:40:57;22.90;;;18.17;;
36797;SDS011;22748;8.426;99.512;2023-09-18T13:43:32;19.60;;;17.50;;
36797;SDS011;22748;8.426;99.512;2023-09-18T13:46:03;18.20;;;16.02;;
36797;SDS011;22748;8.426;99.512;2023-09-18T13:48:34;19.30;;;15.95;;
36797;SDS011;22748;8.426;99.512;2023-09-18T13:51:05;17.38;;;14.75;;
36797;SDS011;22748;8.426;99.512;2023-09-18T13:53:36;18.58;;;15.75;;
36797;SDS011;22748;8.426;99.512;2023-09-18T13:56:10;18.30;;;15.27;;
36797;SDS011;22748;8.426;99.512;2023-09-18T13:58:40;22.08;;;17.63;;
36797;SDS011;22748;8.426;99.512;2023-09-18T14:01:13;19.83;;;17.33;;
36797;SDS011;22748;8.426;99.512;2023-09-18T14:03:44;19.17;;;17.17;;
36797;SDS011;22748;8.426;99.512;2023-09-18T14:06:14;20.90;;;16.98;;
36797;SDS011;22748;8.426;99.512;2023-09-18T14:08:54;19.13;;;16.80;;
36797;SDS011;22748;8.426;99.512;2023-09-18T14:11:28;17.93;;;16.03;;
36797;SDS011;22748;8.426;99.512;2023-09-18T14:14:05;18.95;;;16.83;;
36797;SDS011;22748;8.426;99.512;2023-09-18T14:16:38;19.92;;;17.45;;
36797;SDS011;22748;8.426;99.512;2023-09-18T14:19:18;20.23;;;17.98;;
36797;SDS011;22748;8.426;99.512;2023-09-18T14:21:49;23.55;;;17.27;;
36797;SDS011;22748;8.426;99.512;2023-09-18T14:24:20;24.92;;;17.15;;
36797;SDS011;22748;8.426;99.512;2023-09-18T14:26:53;19.42;;;16.88;;
36797;SDS011;22748;8.426;99.512;2023-09-18T14:29:25;19.60;;;16.65;;
36797;SDS011;22748;8.426;99.512;2023-09-18T14:39:07;20.73;;;16.77;;
36797;SDS011;22748;8.426;99.512;2023-09-18T14:41:39;20.13;;;16.92;;
36797;SDS011;22748;8.426;99.512;2023-09-18T14:44:11;19.30;;;15.80;;
36797;SDS011;22748;8.426;99.512;2023-09-18T14:46:42;17.90;;;16.10;;
36797;SDS011;22748;8.426;99.512;2023-09-18T14:49:13;18.77;;;15.77;;
36797;SDS011;22748;8.426;99.512;2023-09-18T14:51:43;16.83;;;15.05;;
36797;SDS011;22748;8.426;99.512;2023-09-18T14:54:15;17.73;;;15.55;;
36797;SDS011;22748;8.426;99.512;2023-09-18T14:56:48;16.42;;;14.73;;
36797;SDS011;22748;8.426;99.512;2023-09-18T14:59:22;20.80;;;15.30;;
36797;SDS011;22748;8.426;99.512;2023-09-18T15:31:31;17.50;;;15.10;;
36797;SDS011;22748;8.426;99.512;2023-09-18T15:34:02;17.50;;;14.77;;
36797;SDS011;22748;8.426;99.512;2023-09-18T15:39:03;17.77;;;15.63;;
36797;SDS011;22748;8.426;99.512;2023-09-18T15:41:36;17.05;;;15.25;;
36797;SDS011;22748;8.426;99.512;2023-09-18T15:44:07;16.90;;;14.93;;
36797;SDS011;22748;8.426;99.512;2023-09-18T15:46:41;18.13;;;15.52;;
36797;SDS011;22748;8.426;99.512;2023-09-18T15:49:12;17.75;;;15.95;;
36797;SDS011;22748;8.426;99.512;2023-09-18T15:54:12;18.42;;;16.25;;
36797;SDS011;22748;8.426;99.512;2023-09-18T15:56:42;20.50;;;15.32;;
36797;SDS011;22748;8.426;99.512;2023-09-18T15:59:13;21.75;;;15.85;;
36797;SDS011;22748;8.426;99.512;2023-09-18T16:01:46;20.75;;;15.90;;
36797;SDS011;22748;8.426;99.512;2023-09-18T16:04:17;17.52;;;15.70;;
36797;SDS011;22748;8.426;99.512;2023-09-18T16:06:48;18.80;;;15.43;;
36797;SDS011;22748;8.426;99.512;2023-09-18T16:09:20;19.25;;;16.00;;
36797;SDS011;22748;8.426;99.512;2023-09-18T16:11:51;17.08;;;15.38;;
36797;SDS011;22748;8.426;99.512;2023-09-18T16:16:55;19.02;;;15.90;;
36797;SDS011;22748;8.426;99.512;2023-09-18T16:19:29;17.05;;;15.27;;
36797;SDS011;22748;8.426;99.512;2023-09-18T16:24:32;18.30;;;16.38;;
36797;SDS011;22748;8.426;99.512;2023-09-18T16:27:02;19.23;;;15.18;;
36797;SDS011;22748;8.426;99.512;2023-09-18T16:29:35;15.98;;;14.32;;
36797;SDS011;22748;8.426;99.512;2023-09-18T16:32:07;18.98;;;15.32;;
36797;SDS011;22748;8.426;99.512;2023-09-18T16:34:39;20.70;;;16.65;;
36797;SDS011;22748;8.426;99.512;2023-09-18T16:39:41;16.13;;;14.55;;
36797;SDS011;22748;8.426;99.512;2023-09-18T16:42:12;16.55;;;14.45;;
36797;SDS011;22748;8.426;99.512;2023-09-18T16:44:43;16.73;;;14.88;;
36797;SDS011;22748;8.426;99.512;2023-09-18T16:47:15;17.20;;;15.23;;
36797;SDS011;22748;8.426;99.512;2023-09-18T16:49:48;15.75;;;14.13;;
36797;SDS011;22748;8.426;99.512;2023-09-18T16:54:50;15.13;;;13.63;;
36797;SDS011;22748;8.426;99.512;2023-09-18T16:57:22;18.05;;;14.40;;
36797;SDS011;22748;8.426;99.512;2023-09-18T16:59:53;17.00;;;14.50;;
36797;SDS011;22748;8.426;99.512;2023-09-18T17:04:54;15.90;;;13.83;;